Time;durP1;ratioP1;P1;durP2;ratioP2;P2;SDS_P1;SDS_P2;PMS_P1;PMS_P2;Temp;Humidity;BMP_temperature;BMP_pressure;BME280_temperature;BME280_humidity;BME280_pressure;Samples;Min_cycle;Max_cycle;Signal;HPM_P1;HPM_P2
2023/07/12 00:01:09;;;;;;;6.00;2.72;;;;;;;;;;5075689;28;20040;-71
2023/07/12 00:03:35;;;;;;;4.70;2.40;;;;;;;;;;5093200;28;20043;-71
2023/07/12 00:06:01;;;;;;;5.03;2.80;;;;;;;;;;5092981;28;20042;-72
2023/07/12 00:08:28;;;;;;;5.47;2.50;;;;;;;;;;5092843;28;20113;-71
2023/07/12 00:10:56;;;;;;;4.93;2.30;;;;;;;;;;5092595;28;20032;-72
2023/07/12 00:13:23;;;;;;;4.93;2.33;;;;;;;;;;5092983;28;20044;-71
2023/07/12 00:15:50;;;;;;;5.85;2.60;;;;;;;;;;5092998;28;20417;-71
2023/07/12 00:18:17;;;;;;;5.57;2.38;;;;;;;;;;5093574;28;20107;-72
2023/07/12 00:20:44;;;;;;;4.05;2.50;;;;;;;;;;5093106;28;20047;-72
2023/07/12 00:23:11;;;;;;;4.63;2.58;;;;;;;;;;5092638;28;20773;-73
2023/07/12 00:25:38;;;;;;;6.30;2.70;;;;;;;;;;5094231;28;20040;-72
2023/07/12 00:28:12;;;;;;;3.75;2.30;;;;;;;;;;5092502;28;20044;-72
2023/07/12 00:30:38;;;;;;;5.40;2.35;;;;;;;;;;5092941;28;20040;-72
2023/07/12 00:33:04;;;;;;;6.03;2.40;;;;;;;;;;5092530;28;20036;-72
2023/07/12 00:35:31;;;;;;;5.97;2.40;;;;;;;;;;5094129;28;20126;-71
2023/07/12 00:37:58;;;;;;;5.20;2.30;;;;;;;;;;5075576;28;20044;-74
2023/07/12 00:40:43;;;;;;;5.93;2.40;;;;;;;;;;5092744;28;20047;-73
2023/07/12 00:43:16;;;;;;;4.93;2.65;;;;;;;;;;5092111;28;20545;-72
2023/07/12 00:45:43;;;;;;;4.85;2.55;;;;;;;;;;5092643;28;20487;-73
2023/07/12 00:48:11;;;;;;;4.43;2.15;;;;;;;;;;5093633;28;20115;-73
2023/07/12 00:50:37;;;;;;;5.80;2.47;;;;;;;;;;5092236;28;20123;-73
2023/07/12 00:53:03;;;;;;;5.28;2.35;;;;;;;;;;5092028;28;20418;-73
2023/07/12 00:55:48;;;;;;;6.00;2.50;;;;;;;;;;5092030;28;20051;-71
2023/07/12 00:58:14;;;;;;;4.68;2.20;;;;;;;;;;5091503;28;20052;-72
2023/07/12 01:00:40;;;;;;;6.13;2.10;;;;;;;;;;5093490;28;20075;-71
2023/07/12 01:03:07;;;;;;;7.28;2.47;;;;;;;;;;5091660;28;20044;-72
2023/07/12 01:05:35;;;;;;;6.20;2.67;;;;;;;;;;5091514;28;20451;-71
2023/07/12 01:08:01;;;;;;;6.53;2.53;;;;;;;;;;5092921;28;20085;-71
2023/07/12 01:10:27;;;;;;;8.05;2.78;;;;;;;;;;5091223;28;20044;-72
2023/07/12 01:12:53;;;;;;;6.75;2.60;;;;;;;;;;5090022;28;20048;-72
2023/07/12 01:15:19;;;;;;;7.50;3.03;;;;;;;;;;5091097;28;20511;-72
2023/07/12 01:17:45;;;;;;;7.82;2.55;;;;;;;;;;5091596;28;20039;-72
2023/07/12 01:20:12;;;;;;;5.40;1.90;;;;;;;;;;5073972;28;20046;-71
2023/07/12 01:22:38;;;;;;;6.35;2.90;;;;;;;;;;5091822;28;20050;-71
2023/07/12 01:25:04;;;;;;;7.03;2.95;;;;;;;;;;5092017;28;20043;-72
2023/07/12 01:27:30;;;;;;;8.15;2.75;;;;;;;;;;5091296;28;20467;-71
2023/07/12 01:29:56;;;;;;;8.80;2.90;;;;;;;;;;5091187;28;20040;-71
2023/07/12 01:32:22;;;;;;;6.85;2.92;;;;;;;;;;5091352;28;20492;-72
2023/07/12 01:34:48;;;;;;;9.18;3.00;;;;;;;;;;5092684;28;20409;-71
2023/07/12 01:37:14;;;;;;;7.10;2.88;;;;;;;;;;5090612;28;20042;-71
2023/07/12 01:39:40;;;;;;;7.85;3.25;;;;;;;;;;5092578;28;20040;-72
2023/07/12 01:42:06;;;;;;;9.77;3.03;;;;;;;;;;5092483;28;20504;-72
2023/07/12 01:44:32;;;;;;;7.18;2.83;;;;;;;;;;5092746;28;20040;-72
2023/07/12 01:46:58;;;;;;;8.82;3.33;;;;;;;;;;5090885;28;20084;-72
2023/07/12 01:49:24;;;;;;;6.88;2.72;;;;;;;;;;5091234;28;20512;-72
2023/07/12 01:51:51;;;;;;;7.80;3.20;;;;;;;;;;5092614;28;20043;-72
2023/07/12 01:54:17;;;;;;;8.50;3.20;;;;;;;;;;5091224;28;20493;-72
2023/07/12 01:56:43;;;;;;;6.47;2.78;;;;;;;;;;5091258;28;20370;-72
2023/07/12 01:59:09;;;;;;;7.95;3.05;;;;;;;;;;5073603;28;20097;-72
2023/07/12 02:01:35;;;;;;;7.53;3.20;;;;;;;;;;5089912;28;20065;-72
2023/07/12 02:04:01;;;;;;;9.98;3.60;;;;;;;;;;5092394;28;20036;-72
2023/07/12 02:06:27;;;;;;;10.88;3.33;;;;;;;;;;5089573;28;20101;-72
2023/07/12 02:08:53;;;;;;;8.77;2.83;;;;;;;;;;5057180;28;20087;-72
2023/07/12 02:11:19;;;;;;;11.85;3.55;;;;;;;;;;5090605;28;20044;-71
2023/07/12 02:13:45;;;;;;;9.02;3.20;;;;;;;;;;5091057;28;20126;-72
2023/07/12 02:16:11;;;;;;;11.63;3.22;;;;;;;;;;5090575;28;20048;-71
2023/07/12 02:18:38;;;;;;;9.50;3.80;;;;;;;;;;5073711;28;20391;-71
2023/07/12 02:21:04;;;;;;;16.20;4.10;;;;;;;;;;5091880;28;20105;-71
2023/07/12 02:23:30;;;;;;;12.20;3.95;;;;;;;;;;5091810;28;20039;-71
2023/07/12 02:25:56;;;;;;;12.10;4.20;;;;;;;;;;5091955;28;20119;-71
2023/07/12 02:28:22;;;;;;;13.50;4.40;;;;;;;;;;5090905;28;20032;-71
2023/07/12 02:30:48;;;;;;;15.55;4.25;;;;;;;;;;5091972;28;20119;-71
2023/07/12 02:33:14;;;;;;;15.18;3.83;;;;;;;;;;5091862;28;20032;-71
2023/07/12 02:35:41;;;;;;;13.27;4.43;;;;;;;;;;5091961;28;20040;-74
2023/07/12 02:38:07;;;;;;;11.27;4.10;;;;;;;;;;5090291;28;20082;-74
2023/07/12 02:40:33;;;;;;;12.32;4.32;;;;;;;;;;5090440;28;20503;-74
2023/07/12 02:43:00;;;;;;;12.88;4.40;;;;;;;;;;5091526;28;20076;-74
2023/07/12 02:45:26;;;;;;;14.68;4.40;;;;;;;;;;5076315;28;20093;-74
2023/07/12 02:47:52;;;;;;;17.08;5.00;;;;;;;;;;5090266;28;20484;-75
2023/07/12 02:50:18;;;;;;;17.13;4.30;;;;;;;;;;5090044;28;20048;-74
2023/07/12 02:52:44;;;;;;;14.70;4.70;;;;;;;;;;5073803;28;20036;-74
2023/07/12 02:55:11;;;;;;;14.35;5.00;;;;;;;;;;5073582;28;20055;-74
2023/07/12 02:57:37;;;;;;;15.45;4.72;;;;;;;;;;5073561;28;20087;-74
2023/07/12 03:00:03;;;;;;;13.23;5.35;;;;;;;;;;5089869;28;20036;-74
2023/07/12 03:02:30;;;;;;;18.60;4.82;;;;;;;;;;5090117;28;20051;-74
2023/07/12 03:04:56;;;;;;;14.80;5.28;;;;;;;;;;5090447;28;20480;-74
2023/07/12 03:07:22;;;;;;;15.68;5.55;;;;;;;;;;5089803;28;20032;-74
2023/07/12 03:09:48;;;;;;;16.38;5.50;;;;;;;;;;5085303;28;20045;-75
2023/07/12 03:12:14;;;;;;;14.43;5.20;;;;;;;;;;5089771;28;20066;-72
2023/07/12 03:14:40;;;;;;;16.67;5.63;;;;;;;;;;5093423;28;20044;-71
2023/07/12 03:17:06;;;;;;;18.63;6.22;;;;;;;;;;5092827;28;20082;-70
2023/07/12 03:19:36;;;;;;;13.48;5.10;;;;;;;;;;5093551;28;20059;-72
2023/07/12 03:22:03;;;;;;;15.52;5.32;;;;;;;;;;5095547;28;20200;-72
2023/07/12 03:24:29;;;;;;;12.13;4.95;;;;;;;;;;5093339;28;20169;-72
2023/07/12 03:26:55;;;;;;;17.02;5.10;;;;;;;;;;5094374;28;20392;-70
2023/07/12 03:29:21;;;;;;;13.73;4.60;;;;;;;;;;5056511;28;20046;-72
2023/07/12 03:31:47;;;;;;;13.80;4.88;;;;;;;;;;5077245;28;20047;-72
2023/07/12 03:34:13;;;;;;;13.75;4.97;;;;;;;;;;5094038;28;20044;-70
2023/07/12 03:36:39;;;;;;;13.57;4.25;;;;;;;;;;5093683;28;20126;-71
2023/07/12 03:39:06;;;;;;;12.65;4.38;;;;;;;;;;5076701;28;20040;-70
2023/07/12 03:41:32;;;;;;;13.35;4.55;;;;;;;;;;5094887;28;20040;-72
2023/07/12 03:43:58;;;;;;;14.02;4.35;;;;;;;;;;5092861;28;20076;-72
2023/07/12 03:46:24;;;;;;;11.38;3.95;;;;;;;;;;5094628;28;20044;-71
2023/07/12 03:48:51;;;;;;;13.80;3.88;;;;;;;;;;5066727;28;20131;-70
2023/07/12 03:51:18;;;;;;;14.50;4.32;;;;;;;;;;5093455;28;20044;-70
2023/07/12 03:53:44;;;;;;;9.35;3.90;;;;;;;;;;5093136;28;20043;-70
2023/07/12 03:56:10;;;;;;;13.30;4.10;;;;;;;;;;5095199;28;20047;-70
2023/07/12 03:58:37;;;;;;;11.23;3.90;;;;;;;;;;5094066;28;20051;-70
2023/07/12 04:01:06;;;;;;;14.65;5.07;;;;;;;;;;5093637;28;20036;-70
2023/07/12 04:03:32;;;;;;;15.02;5.28;;;;;;;;;;5090119;28;20552;-70
2023/07/12 04:05:58;;;;;;;12.48;5.78;;;;;;;;;;5075538;28;20040;-70
2023/07/12 04:08:24;;;;;;;16.45;6.25;;;;;;;;;;5093538;28;20040;-70
2023/07/12 04:10:54;;;;;;;15.32;5.68;;;;;;;;;;5092688;28;20058;-70
2023/07/12 04:13:20;;;;;;;13.73;5.97;;;;;;;;;;5093350;28;20036;-72
2023/07/12 04:15:46;;;;;;;14.68;5.95;;;;;;;;;;5094256;28;20047;-71
2023/07/12 04:18:12;;;;;;;13.73;5.00;;;;;;;;;;5093175;28;20044;-71
2023/07/12 04:20:39;;;;;;;17.65;5.05;;;;;;;;;;5092235;28;20040;-72
2023/07/12 04:23:05;;;;;;;15.52;5.90;;;;;;;;;;5092436;28;20036;-72
2023/07/12 04:25:32;;;;;;;17.27;4.57;;;;;;;;;;5092578;28;20032;-72
2023/07/12 04:27:58;;;;;;;15.40;4.72;;;;;;;;;;5092481;28;20086;-72
2023/07/12 04:30:24;;;;;;;12.85;4.32;;;;;;;;;;5094250;28;20043;-71
2023/07/12 04:32:52;;;;;;;12.05;4.90;;;;;;;;;;5075722;28;20047;-72
2023/07/12 04:35:18;;;;;;;11.77;4.07;;;;;;;;;;5092785;28;20048;-71
2023/07/12 04:37:45;;;;;;;11.70;4.07;;;;;;;;;;5075707;28;20043;-71
2023/07/12 04:40:11;;;;;;;13.80;4.40;;;;;;;;;;5092871;28;20051;-72
2023/07/12 04:42:37;;;;;;;17.45;4.32;;;;;;;;;;5092209;28;20063;-71
2023/07/12 04:45:04;;;;;;;13.57;4.72;;;;;;;;;;5092553;28;20036;-72
2023/07/12 04:47:31;;;;;;;10.32;4.30;;;;;;;;;;5092358;28;20067;-72
2023/07/12 04:49:57;;;;;;;14.05;4.47;;;;;;;;;;5093602;28;20040;-72
2023/07/12 04:52:23;;;;;;;12.93;4.75;;;;;;;;;;5092893;28;20035;-72
2023/07/12 04:54:49;;;;;;;15.15;5.20;;;;;;;;;;5086343;28;20066;-72
2023/07/12 04:57:15;;;;;;;15.30;4.40;;;;;;;;;;5093689;28;20500;-72
2023/07/12 04:59:41;;;;;;;15.20;5.18;;;;;;;;;;5093488;28;20043;-72
2023/07/12 05:02:07;;;;;;;13.57;4.80;;;;;;;;;;5092646;28;20043;-72
2023/07/12 05:04:33;;;;;;;14.52;4.82;;;;;;;;;;5091007;28;20057;-72
2023/07/12 05:07:00;;;;;;;16.08;5.05;;;;;;;;;;5058409;28;20036;-72
2023/07/12 05:09:26;;;;;;;11.18;4.70;;;;;;;;;;5093349;28;20048;-72
2023/07/12 05:11:55;;;;;;;14.82;4.97;;;;;;;;;;5092050;28;20148;-72
2023/07/12 05:14:21;;;;;;;16.65;4.68;;;;;;;;;;5086538;28;20169;-71
2023/07/12 05:16:47;;;;;;;14.50;4.82;;;;;;;;;;5091871;28;20044;-72
2023/07/12 05:19:13;;;;;;;11.13;4.75;;;;;;;;;;5091430;28;20076;-72
2023/07/12 05:21:39;;;;;;;14.32;4.68;;;;;;;;;;5091699;28;20078;-72
2023/07/12 05:24:06;;;;;;;15.13;5.30;;;;;;;;;;5074528;28;20044;-73
2023/07/12 05:26:32;;;;;;;15.52;5.53;;;;;;;;;;5074946;28;20089;-70
2023/07/12 05:28:58;;;;;;;15.38;5.50;;;;;;;;;;5093120;28;20111;-73
2023/07/12 05:31:24;;;;;;;26.08;5.68;;;;;;;;;;5074851;28;20047;-73
2023/07/12 05:33:50;;;;;;;15.50;5.65;;;;;;;;;;5090970;28;20067;-74
2023/07/12 05:36:16;;;;;;;17.50;5.63;;;;;;;;;;5091162;28;20047;-73
2023/07/12 05:38:42;;;;;;;20.65;6.03;;;;;;;;;;5091223;28;20492;-72
2023/07/12 05:41:08;;;;;;;18.10;6.32;;;;;;;;;;5092966;28;20046;-72
2023/07/12 05:43:34;;;;;;;16.95;6.13;;;;;;;;;;5091878;28;20532;-72
2023/07/12 05:46:00;;;;;;;21.98;6.70;;;;;;;;;;5074129;28;20040;-73
2023/07/12 05:48:27;;;;;;;20.13;6.70;;;;;;;;;;5091393;28;20036;-72
2023/07/12 05:50:59;;;;;;;31.25;8.15;;;;;;;;;;5090761;28;20040;-76
2023/07/12 05:53:25;;;;;;;18.77;7.10;;;;;;;;;;5091663;28;20028;-74
2023/07/12 05:55:55;;;;;;;24.30;7.03;;;;;;;;;;5090741;28;20050;-75
2023/07/12 05:58:22;;;;;;;16.45;6.65;;;;;;;;;;5091170;28;20083;-75
2023/07/12 06:00:48;;;;;;;21.50;7.43;;;;;;;;;;5090447;28;20044;-74
2023/07/12 06:03:14;;;;;;;16.45;6.38;;;;;;;;;;5091381;28;20166;-75
2023/07/12 06:05:44;;;;;;;15.15;7.03;;;;;;;;;;5090469;28;20536;-75
2023/07/12 06:08:10;;;;;;;16.48;6.68;;;;;;;;;;5091184;28;20043;-73
2023/07/12 06:10:37;;;;;;;19.08;7.45;;;;;;;;;;5073622;28;20052;-74
2023/07/12 06:13:03;;;;;;;21.67;7.30;;;;;;;;;;5091245;28;20042;-74
2023/07/12 06:15:29;;;;;;;15.57;6.35;;;;;;;;;;5091020;28;20052;-75
2023/07/12 06:17:55;;;;;;;17.38;6.78;;;;;;;;;;5090625;28;20044;-75
2023/07/12 06:20:21;;;;;;;15.18;5.65;;;;;;;;;;5092244;28;20504;-75
2023/07/12 06:22:47;;;;;;;16.90;6.28;;;;;;;;;;5073770;28;20172;-75
2023/07/12 06:25:13;;;;;;;16.10;5.60;;;;;;;;;;5092042;28;20045;-74
2023/07/12 06:27:39;;;;;;;17.40;5.85;;;;;;;;;;5091166;28;20036;-75
2023/07/12 06:30:05;;;;;;;15.98;5.07;;;;;;;;;;5092032;28;20040;-75
2023/07/12 06:32:32;;;;;;;11.13;4.55;;;;;;;;;;5092186;28;20089;-75
2023/07/12 06:34:58;;;;;;;12.30;4.25;;;;;;;;;;5073838;28;20553;-75
2023/07/12 06:37:24;;;;;;;12.50;4.75;;;;;;;;;;5091008;28;20400;-74
2023/07/12 06:39:50;;;;;;;15.55;4.43;;;;;;;;;;5073741;28;20533;-74
2023/07/12 06:42:17;;;;;;;12.57;4.45;;;;;;;;;;5090728;28;20509;-74
2023/07/12 06:44:43;;;;;;;16.90;4.93;;;;;;;;;;5090247;28;20040;-74
2023/07/12 06:47:09;;;;;;;11.57;4.00;;;;;;;;;;5094394;28;20502;-73
2023/07/12 06:49:35;;;;;;;13.32;4.43;;;;;;;;;;5094955;28;20400;-74
2023/07/12 06:52:02;;;;;;;13.63;4.25;;;;;;;;;;5092435;28;20036;-74
2023/07/12 06:54:28;;;;;;;15.20;4.20;;;;;;;;;;5093797;28;20032;-75
2023/07/12 06:56:55;;;;;;;12.57;3.88;;;;;;;;;;5095798;28;20059;-77
2023/07/12 06:59:21;;;;;;;12.98;3.70;;;;;;;;;;5095514;28;20039;-77
2023/07/12 07:01:47;;;;;;;14.70;4.00;;;;;;;;;;5094386;28;20366;-76
2023/07/12 07:04:14;;;;;;;32.50;5.45;;;;;;;;;;5094400;28;20047;-77
2023/07/12 07:06:40;;;;;;;14.85;3.70;;;;;;;;;;5096020;28;20047;-75
2023/07/12 07:09:06;;;;;;;13.50;3.70;;;;;;;;;;5095042;28;20058;-77
2023/07/12 07:11:32;;;;;;;16.55;3.90;;;;;;;;;;5094155;28;20048;-77
2023/07/12 07:13:58;;;;;;;13.80;3.20;;;;;;;;;;5094182;28;20132;-74
2023/07/12 07:16:24;;;;;;;14.18;3.50;;;;;;;;;;5067625;28;20036;-74
2023/07/12 07:18:51;;;;;;;14.20;3.63;;;;;;;;;;5093541;28;20075;-77
2023/07/12 07:21:17;;;;;;;12.75;3.70;;;;;;;;;;5094508;28;20036;-77
2023/07/12 07:23:44;;;;;;;12.07;3.80;;;;;;;;;;5094098;28;20043;-76
2023/07/12 07:26:10;;;;;;;14.85;4.00;;;;;;;;;;5094180;28;20040;-76
2023/07/12 07:28:37;;;;;;;11.75;3.85;;;;;;;;;;5094889;28;20031;-77
2023/07/12 07:31:03;;;;;;;10.52;4.00;;;;;;;;;;5093902;28;20048;-76
2023/07/12 07:33:29;;;;;;;13.95;5.22;;;;;;;;;;5095210;28;20055;-76
2023/07/12 07:35:56;;;;;;;15.95;5.20;;;;;;;;;;5094252;28;20043;-77
2023/07/12 07:38:26;;;;;;;15.25;4.85;;;;;;;;;;5094176;28;20442;-75
2023/07/12 07:40:53;;;;;;;14.15;5.00;;;;;;;;;;5094208;28;20071;-76
2023/07/12 07:43:19;;;;;;;10.77;4.50;;;;;;;;;;5093964;28;20114;-77
2023/07/12 07:45:45;;;;;;;17.08;5.05;;;;;;;;;;5077390;28;20048;-76
2023/07/12 07:48:12;;;;;;;13.15;4.97;;;;;;;;;;5093781;28;20093;-76
2023/07/12 07:50:41;;;;;;;10.27;4.40;;;;;;;;;;5087164;28;20040;-76
2023/07/12 07:53:07;;;;;;;13.00;5.20;;;;;;;;;;5091920;28;20036;-76
2023/07/12 07:55:33;;;;;;;15.05;5.60;;;;;;;;;;5093997;28;20480;-76
2023/07/12 07:58:00;;;;;;;12.30;4.72;;;;;;;;;;5092432;28;20044;-76
2023/07/12 08:00:26;;;;;;;14.00;4.88;;;;;;;;;;5092921;28;20054;-76
2023/07/12 08:02:53;;;;;;;11.38;4.93;;;;;;;;;;5093559;28;20123;-76
2023/07/12 08:05:19;;;;;;;15.68;4.80;;;;;;;;;;5091812;28;20550;-76
2023/07/12 08:07:50;;;;;;;12.93;4.82;;;;;;;;;;5093297;28;20043;-76
2023/07/12 08:10:17;;;;;;;9.63;4.60;;;;;;;;;;5089571;28;20044;-75
2023/07/12 08:12:44;;;;;;;12.15;5.28;;;;;;;;;;5093231;28;20127;-76
2023/07/12 08:15:10;;;;;;;16.58;5.45;;;;;;;;;;5092903;28;20039;-72
2023/07/12 08:17:37;;;;;;;12.50;4.63;;;;;;;;;;5094720;28;20115;-74
2023/07/12 08:20:04;;;;;;;14.43;5.20;;;;;;;;;;5091767;28;20044;-73
2023/07/12 08:22:30;;;;;;;9.80;3.80;;;;;;;;;;5092068;28;20108;-73
2023/07/12 08:24:57;;;;;;;8.68;3.90;;;;;;;;;;5091134;28;20488;-72
2023/07/12 08:27:23;;;;;;;7.95;3.67;;;;;;;;;;5091945;28;20062;-72
2023/07/12 08:29:49;;;;;;;11.90;4.90;;;;;;;;;;5091500;28;20166;-71
2023/07/12 08:32:17;;;;;;;10.85;4.47;;;;;;;;;;5090979;28;20061;-73
2023/07/12 08:34:43;;;;;;;9.55;4.50;;;;;;;;;;5092088;28;20044;-72
2023/07/12 08:37:09;;;;;;;11.02;4.85;;;;;;;;;;5092430;28;20070;-73
2023/07/12 08:39:35;;;;;;;10.65;4.53;;;;;;;;;;5093207;28;20042;-72
2023/07/12 08:42:05;;;;;;;10.20;4.75;;;;;;;;;;5091300;28;20040;-73
2023/07/12 08:44:32;;;;;;;10.00;4.63;;;;;;;;;;5092314;28;20048;-72
2023/07/12 08:46:59;;;;;;;12.13;4.18;;;;;;;;;;5092192;28;20072;-74
2023/07/12 08:49:26;;;;;;;11.50;3.90;;;;;;;;;;5073076;28;20040;-70
2023/07/12 08:51:55;;;;;;;8.13;3.10;;;;;;;;;;5093370;28;20068;-73
2023/07/12 08:54:23;;;;;;;10.43;3.35;;;;;;;;;;5092099;28;20051;-71
2023/07/12 08:56:51;;;;;;;8.55;2.83;;;;;;;;;;5092265;28;20123;-72
2023/07/12 08:59:17;;;;;;;13.13;3.15;;;;;;;;;;5092244;28;20523;-73
2023/07/12 09:01:45;;;;;;;9.07;2.90;;;;;;;;;;5093565;28;20430;-72
2023/07/12 09:04:31;;;;;;;9.75;3.03;;;;;;;;;;5090164;28;20040;-73
2023/07/12 09:06:57;;;;;;;;;;;;;;;;;;5092887;28;20370;-72
2023/07/12 09:09:26;;;;;;;8.82;2.60;;;;;;;;;;5090959;28;19973;-71
2023/07/12 09:11:52;;;;;;;7.50;2.80;;;;;;;;;;5091827;28;20047;-73
2023/07/12 09:14:19;;;;;;;8.65;2.80;;;;;;;;;;5090979;28;20512;-74
2023/07/12 09:16:47;;;;;;;6.82;2.40;;;;;;;;;;5091840;28;20047;-72
2023/07/12 09:19:17;;;;;;;8.55;2.33;;;;;;;;;;5090644;28;20040;-72
2023/07/12 09:21:47;;;;;;;8.15;2.50;;;;;;;;;;5093548;28;20036;-72
2023/07/12 09:24:14;;;;;;;5.43;2.20;;;;;;;;;;5091417;28;20047;-71
2023/07/12 09:26:40;;;;;;;29.25;4.45;;;;;;;;;;5093307;28;20051;-71
2023/07/12 09:29:13;;;;;;;12.30;2.33;;;;;;;;;;5093065;28;20047;-71
2023/07/12 09:31:40;;;;;;;6.05;1.92;;;;;;;;;;5092929;28;20036;-70
2023/07/12 09:34:14;;;;;;;5.95;1.80;;;;;;;;;;5092422;28;20044;-71
2023/07/12 09:36:40;;;;;;;7.72;2.05;;;;;;;;;;5093160;28;20493;-73
2023/07/12 09:39:09;;;;;;;7.10;1.80;;;;;;;;;;5092440;28;20127;-68
2023/07/12 09:41:36;;;;;;;4.65;1.65;;;;;;;;;;5093262;28;20481;-70
2023/07/12 09:44:02;;;;;;;5.25;2.05;;;;;;;;;;5092590;28;20047;-67
2023/07/12 09:46:31;;;;;;;4.43;1.70;;;;;;;;;;5092062;28;20488;-68
2023/07/12 09:49:00;;;;;;;8.68;2.40;;;;;;;;;;5091965;28;20036;-71
2023/07/12 09:51:33;;;;;;;11.40;2.28;;;;;;;;;;5092005;28;20031;-70
2023/07/12 09:53:59;;;;;;;6.15;1.90;;;;;;;;;;5090754;28;20032;-70
2023/07/12 09:56:29;;;;;;;8.00;2.30;;;;;;;;;;5092189;28;20059;-71
2023/07/12 09:59:06;;;;;;;107.07;13.82;;;;;;;;;;5091120;28;20135;-69
2023/07/12 10:01:38;;;;;;;6.72;2.50;;;;;;;;;;5092257;28;20069;-70
2023/07/12 10:04:10;;;;;;;7.07;2.42;;;;;;;;;;5090976;28;20036;-70
2023/07/12 10:06:40;;;;;;;7.72;1.98;;;;;;;;;;5091838;28;20119;-67
2023/07/12 10:09:14;;;;;;;51.80;6.47;;;;;;;;;;5090856;28;20400;-69
2023/07/12 10:11:50;;;;;;;8.43;2.75;;;;;;;;;;5092755;28;20052;-69
2023/07/12 10:14:18;;;;;;;8.73;2.47;;;;;;;;;;5089550;28;20373;-71
2023/07/12 10:16:52;;;;;;;8.93;2.50;;;;;;;;;;5090663;28;20036;-71
2023/07/12 10:19:44;;;;;;;7.03;2.40;;;;;;;;;;5091385;28;20031;-69
2023/07/12 10:22:15;;;;;;;6.13;2.42;;;;;;;;;;5090184;28;20048;-68
2023/07/12 10:24:44;;;;;;;7.28;2.45;;;;;;;;;;5090427;28;20131;-70
2023/07/12 10:27:17;;;;;;;6.78;2.40;;;;;;;;;;5088372;28;20040;-70
2023/07/12 10:29:51;;;;;;;5.47;2.20;;;;;;;;;;5090881;28;20032;-67
2023/07/12 10:32:21;;;;;;;6.03;2.20;;;;;;;;;;5089923;28;20536;-71
2023/07/12 10:34:51;;;;;;;6.68;1.88;;;;;;;;;;5089179;28;20181;-68
2023/07/12 10:37:26;;;;;;;5.28;2.30;;;;;;;;;;5083213;28;20481;-71
2023/07/12 10:39:52;;;;;;;3.83;1.90;;;;;;;;;;5088357;28;20123;-70
2023/07/12 10:42:28;;;;;;;5.10;1.80;;;;;;;;;;5090367;28;20127;-68
2023/07/12 10:44:55;;;;;;;6.72;1.85;;;;;;;;;;5089899;28;20040;-67
2023/07/12 10:47:23;;;;;;;4.55;1.85;;;;;;;;;;5091474;28;20465;-69
2023/07/12 10:50:00;;;;;;;7.30;2.03;;;;;;;;;;5092097;28;20110;-70
2023/07/12 10:52:34;;;;;;;4.80;2.03;;;;;;;;;;5091261;28;20044;-68
2023/07/12 10:55:03;;;;;;;4.13;1.70;;;;;;;;;;5090641;28;20047;-67
2023/07/12 10:57:36;;;;;;;5.65;1.80;;;;;;;;;;5090005;28;20048;-68
2023/07/12 11:00:23;;;;;;;5.53;1.80;;;;;;;;;;5091018;28;20502;-67
2023/07/12 11:02:59;;;;;;;4.35;1.40;;;;;;;;;;5087928;28;20039;-68
2023/07/12 11:05:51;;;;;;;5.13;1.70;;;;;;;;;;5091487;28;20043;-69
2023/07/12 11:08:33;;;;;;;4.78;1.42;;;;;;;;;;5085233;28;20512;-69
2023/07/12 11:11:00;;;;;;;5.13;1.50;;;;;;;;;;5089647;28;20080;-68
2023/07/12 11:13:30;;;;;;;5.30;1.70;;;;;;;;;;5090446;28;20051;-67
2023/07/12 11:16:02;;;;;;;4.75;2.10;;;;;;;;;;5091423;28;20079;-67
2023/07/12 11:18:51;;;;;;;5.63;1.58;;;;;;;;;;5091565;28;20051;-67
2023/07/12 11:21:29;;;;;;;3.65;1.40;;;;;;;;;;5080947;28;20079;-69
2023/07/12 11:23:55;;;;;;;4.63;1.50;;;;;;;;;;5091274;28;20109;-70
2023/07/12 11:26:26;;;;;;;10.13;2.28;;;;;;;;;;5089481;28;20132;-69
2023/07/12 11:28:53;;;;;;;4.70;1.52;;;;;;;;;;5090692;28;20051;-71
2023/07/12 11:31:23;;;;;;;6.22;1.38;;;;;;;;;;5091348;28;20476;-69
2023/07/12 11:34:13;;;;;;;6.28;1.42;;;;;;;;;;5094163;28;20388;-69
2023/07/12 11:36:40;;;;;;;4.55;1.25;;;;;;;;;;5094708;28;20044;-67
2023/07/12 11:39:14;;;;;;;4.93;1.35;;;;;;;;;;5094446;28;20075;-71
2023/07/12 11:41:51;;;;;;;3.88;1.27;;;;;;;;;;5093961;28;20032;-71
2023/07/12 11:44:17;;;;;;;5.38;1.35;;;;;;;;;;5094695;28;20472;-70
2023/07/12 11:46:44;;;;;;;3.97;1.38;;;;;;;;;;5094894;28;20114;-69
2023/07/12 11:49:17;;;;;;;3.83;1.13;;;;;;;;;;5094846;28;20043;-67
2023/07/12 11:51:44;;;;;;;2.53;1.10;;;;;;;;;;5094679;28;20124;-69
2023/07/12 11:54:19;;;;;;;4.28;1.20;;;;;;;;;;5094764;28;20043;-68
2023/07/12 11:56:46;;;;;;;2.90;1.02;;;;;;;;;;5067220;28;20537;-70
2023/07/12 11:59:20;;;;;;;2.95;1.10;;;;;;;;;;5092778;28;20515;-68
2023/07/12 12:01:50;;;;;;;5.03;1.42;;;;;;;;;;5093097;28;20097;-68
2023/07/12 12:04:19;;;;;;;3.47;1.10;;;;;;;;;;5093376;28;20196;-69
2023/07/12 12:06:45;;;;;;;5.88;1.50;;;;;;;;;;5094647;28;20032;-68
2023/07/12 12:09:11;;;;;;;5.63;1.50;;;;;;;;;;5094224;28;20056;-70
2023/07/12 12:11:39;;;;;;;5.10;1.48;;;;;;;;;;5091858;28;20044;-68
2023/07/12 12:14:06;;;;;;;6.82;1.40;;;;;;;;;;5094639;28;20028;-67
2023/07/12 12:16:32;;;;;;;5.70;1.08;;;;;;;;;;5093891;28;20557;-70
2023/07/12 12:18:59;;;;;;;4.70;1.20;;;;;;;;;;5094329;28;20127;-70
2023/07/12 12:21:27;;;;;;;7.10;1.40;;;;;;;;;;5092301;28;20043;-66
2023/07/12 12:23:54;;;;;;;4.45;1.00;;;;;;;;;;5094504;28;20039;-69
2023/07/12 12:26:32;;;;;;;3.72;1.20;;;;;;;;;;5093866;28;20496;-68
2023/07/12 12:28:58;;;;;;;3.70;1.05;;;;;;;;;;5093219;28;20032;-67
2023/07/12 12:31:26;;;;;;;3.13;1.25;;;;;;;;;;5091632;28;20043;-67
2023/07/12 12:33:59;;;;;;;4.07;1.20;;;;;;;;;;5092776;28;20028;-70
2023/07/12 12:36:29;;;;;;;4.38;1.08;;;;;;;;;;5092341;28;20044;-67
2023/07/12 12:38:57;;;;;;;4.03;1.10;;;;;;;;;;5093626;28;20048;-68
2023/07/12 12:41:24;;;;;;;6.68;1.42;;;;;;;;;;5093059;28;20043;-68
2023/07/12 12:43:56;;;;;;;3.83;1.38;;;;;;;;;;5092766;28;20040;-69
2023/07/12 12:46:22;;;;;;;3.85;1.10;;;;;;;;;;5092334;28;20467;-67
2023/07/12 12:48:52;;;;;;;3.08;1.10;;;;;;;;;;5093658;28;20046;-68
2023/07/12 12:51:18;;;;;;;2.63;1.08;;;;;;;;;;5093279;28;20043;-69
2023/07/12 12:53:45;;;;;;;2.47;0.95;;;;;;;;;;5093631;28;20058;-68
2023/07/12 12:56:11;;;;;;;6.75;1.40;;;;;;;;;;5093123;28;20036;-68
2023/07/12 12:58:38;;;;;;;5.28;1.40;;;;;;;;;;5092514;28;20142;-67
2023/07/12 13:01:04;;;;;;;4.50;1.15;;;;;;;;;;5093120;28;20491;-67
2023/07/12 13:03:30;;;;;;;9.63;1.27;;;;;;;;;;5093093;28;20118;-69
2023/07/12 13:05:56;;;;;;;4.28;1.38;;;;;;;;;;5089134;28;20054;-67
2023/07/12 13:08:23;;;;;;;11.00;1.40;;;;;;;;;;5089135;28;20032;-69
2023/07/12 13:10:49;;;;;;;6.47;1.30;;;;;;;;;;5091306;28;20539;-67
2023/07/12 13:13:16;;;;;;;4.75;1.20;;;;;;;;;;5092140;28;20071;-65
2023/07/12 13:15:42;;;;;;;8.25;1.40;;;;;;;;;;5090604;28;20035;-69
2023/07/12 13:18:12;;;;;;;9.52;1.60;;;;;;;;;;5092745;28;20477;-70
2023/07/12 13:20:39;;;;;;;3.33;1.02;;;;;;;;;;5092851;28;20101;-67
2023/07/12 13:23:05;;;;;;;4.28;1.23;;;;;;;;;;5092104;28;20042;-68
2023/07/12 13:25:32;;;;;;;3.72;1.20;;;;;;;;;;5089158;28;20127;-69
2023/07/12 13:27:58;;;;;;;17.05;2.55;;;;;;;;;;5086902;28;20110;-68
2023/07/12 13:30:28;;;;;;;19.40;2.40;;;;;;;;;;5090800;28;20126;-67
2023/07/12 13:32:55;;;;;;;3.95;1.20;;;;;;;;;;5088980;28;20048;-67
2023/07/12 13:35:23;;;;;;;9.85;1.70;;;;;;;;;;5088160;28;20083;-66
2023/07/12 13:37:49;;;;;;;5.70;1.08;;;;;;;;;;5090020;28;20639;-69
2023/07/12 13:40:19;;;;;;;5.80;1.40;;;;;;;;;;5090587;28;20036;-68
2023/07/12 13:42:46;;;;;;;40.50;4.70;;;;;;;;;;5090800;28;20040;-70
2023/07/12 13:45:13;;;;;;;30.90;3.72;;;;;;;;;;5091740;28;20506;-69
2023/07/12 13:47:40;;;;;;;3.13;1.17;;;;;;;;;;5092173;28;20453;-69
2023/07/12 13:50:07;;;;;;;5.30;1.10;;;;;;;;;;5092362;28;20067;-68
2023/07/12 13:52:34;;;;;;;4.07;1.20;;;;;;;;;;5093092;28;20032;-68
2023/07/12 13:55:00;;;;;;;4.03;1.10;;;;;;;;;;5091189;28;20044;-69
2023/07/12 13:57:33;;;;;;;5.65;1.25;;;;;;;;;;5092795;28;20557;-69
2023/07/12 14:00:00;;;;;;;5.28;1.00;;;;;;;;;;5091517;28;20043;-68
2023/07/12 14:02:27;;;;;;;2.40;0.93;;;;;;;;;;5088422;28;20032;-69
2023/07/12 14:04:54;;;;;;;4.30;1.10;;;;;;;;;;5091200;28;20044;-70
2023/07/12 14:07:21;;;;;;;3.03;1.20;;;;;;;;;;5091020;28;20127;-70
2023/07/12 14:09:47;;;;;;;5.10;1.20;;;;;;;;;;5091445;28;20086;-70
2023/07/12 14:12:17;;;;;;;3.30;1.05;;;;;;;;;;5092589;28;20028;-70
2023/07/12 14:14:44;;;;;;;2.85;1.02;;;;;;;;;;5091935;28;20043;-70
2023/07/12 14:17:11;;;;;;;5.25;1.23;;;;;;;;;;5090523;28;20040;-69
2023/07/12 14:19:37;;;;;;;4.40;1.20;;;;;;;;;;5092422;28;20047;-70
2023/07/12 14:22:05;;;;;;;4.28;1.13;;;;;;;;;;5090516;28;20051;-71
2023/07/12 14:24:31;;;;;;;3.17;1.10;;;;;;;;;;5092649;28;20516;-69
2023/07/12 14:26:57;;;;;;;3.03;0.93;;;;;;;;;;5091490;28;20044;-70
2023/07/12 14:29:24;;;;;;;5.70;1.10;;;;;;;;;;5090912;28;20071;-70
2023/07/12 14:31:51;;;;;;;4.43;1.13;;;;;;;;;;5090002;28;20048;-72
2023/07/12 14:34:18;;;;;;;3.03;1.20;;;;;;;;;;5092320;28;20040;-72
2023/07/12 14:36:44;;;;;;;2.25;1.00;;;;;;;;;;5091788;28;20079;-71
2023/07/12 14:39:10;;;;;;;2.90;1.10;;;;;;;;;;5092275;28;20040;-71